sensor_id;sensor_type;location;lat;lon;timestamp;pressure;altitude;pressure_sealevel;temperature;humidity
49709;BME280;35601;55.902;13.606;2023-03-22T00:00:58;99954.99;;;4.52;98.75
49709;BME280;35601;55.902;13.606;2023-03-22T00:03:23;99952.20;;;4.56;98.98
49709;BME280;35601;55.902;13.606;2023-03-22T00:05:56;99955.71;;;4.59;100.00
49709;BME280;35601;55.902;13.606;2023-03-22T00:08:15;99954.11;;;4.34;100.00
49709;BME280;35601;55.902;13.606;2023-03-22T00:10:41;99944.10;;;4.91;100.00
49709;BME280;35601;55.902;13.606;2023-03-22T00:13:07;99944.74;;;4.57;99.49
49709;BME280;35601;55.902;13.606;2023-03-22T00:15:31;99939.72;;;4.61;99.22
49709;BME280;35601;55.902;13.606;2023-03-22T00:17:58;99933.86;;;4.55;99.15
49709;BME280;35601;55.902;13.606;2023-03-22T00:20:23;99928.41;;;4.46;99.65
49709;BME280;35601;55.902;13.606;2023-03-22T00:22:48;99927.94;;;4.30;100.00
49709;BME280;35601;55.902;13.606;2023-03-22T00:25:13;99925.23;;;4.38;100.00
49709;BME280;35601;55.902;13.606;2023-03-22T00:27:38;99921.34;;;4.43;100.00
49709;BME280;35601;55.902;13.606;2023-03-22T00:30:05;99922.15;;;4.20;100.00
49709;BME280;35601;55.902;13.606;2023-03-22T00:32:34;99918.16;;;4.27;100.00
49709;BME280;35601;55.902;13.606;2023-03-22T00:34:55;99919.99;;;4.43;100.00
49709;BME280;35601;55.902;13.606;2023-03-22T00:37:21;99913.65;;;4.52;100.00
49709;BME280;35601;55.902;13.606;2023-03-22T00:39:46;99912.14;;;4.33;100.00
49709;BME280;35601;55.902;13.606;2023-03-22T00:42:12;99908.58;;;4.41;100.00
49709;BME280;35601;55.902;13.606;2023-03-22T00:44:38;99907.20;;;3.93;100.00
49709;BME280;35601;55.902;13.606;2023-03-22T00:47:04;99902.55;;;4.34;100.00
49709;BME280;35601;55.902;13.606;2023-03-22T00:49:29;99905.86;;;4.31;100.00
49709;BME280;35601;55.902;13.606;2023-03-22T00:51:54;99907.99;;;3.99;100.00
49709;BME280;35601;55.902;13.606;2023-03-22T00:54:20;99903.31;;;4.47;98.27
49709;BME280;35601;55.902;13.606;2023-03-22T00:56:45;99899.42;;;4.66;98.05
49709;BME280;35601;55.902;13.606;2023-03-22T00:59:11;99896.66;;;4.53;98.65
49709;BME280;35601;55.902;13.606;2023-03-22T01:01:36;99888.74;;;4.57;98.32
49709;BME280;35601;55.902;13.606;2023-03-22T01:04:02;99887.74;;;4.43;98.99
49709;BME280;35601;55.902;13.606;2023-03-22T01:06:27;99886.57;;;4.79;99.54
49709;BME280;35601;55.902;13.606;2023-03-22T01:08:52;99884.98;;;4.38;99.42
49709;BME280;35601;55.902;13.606;2023-03-22T01:11:18;99883.59;;;4.59;99.61
49709;BME280;35601;55.902;13.606;2023-03-22T01:13:43;99881.03;;;4.79;100.00
49709;BME280;35601;55.902;13.606;2023-03-22T01:16:09;99878.86;;;4.76;100.00
49709;BME280;35601;55.902;13.606;2023-03-22T01:18:35;99878.88;;;4.28;100.00
49709;BME280;35601;55.902;13.606;2023-03-22T01:20:59;99878.35;;;4.43;100.00
49709;BME280;35601;55.902;13.606;2023-03-22T01:23:25;99878.76;;;4.36;100.00
49709;BME280;35601;55.902;13.606;2023-03-22T01:25:50;99874.40;;;4.19;100.00
49709;BME280;35601;55.902;13.606;2023-03-22T01:28:17;99869.33;;;4.11;100.00
49709;BME280;35601;55.902;13.606;2023-03-22T01:30:41;99867.12;;;4.05;100.00
49709;BME280;35601;55.902;13.606;2023-03-22T01:33:07;99865.81;;;4.20;100.00
49709;BME280;35601;55.902;13.606;2023-03-22T01:35:32;99863.68;;;4.42;100.00
49709;BME280;35601;55.902;13.606;2023-03-22T01:37:57;99862.41;;;4.43;100.00
49709;BME280;35601;55.902;13.606;2023-03-22T01:40:23;99856.19;;;4.35;100.00
49709;BME280;35601;55.902;13.606;2023-03-22T01:42:48;99856.32;;;4.35;100.00
49709;BME280;35601;55.902;13.606;2023-03-22T01:47:40;99852.59;;;4.89;99.80
49709;BME280;35601;55.902;13.606;2023-03-22T01:50:06;99854.18;;;4.55;100.00
49709;BME280;35601;55.902;13.606;2023-03-22T01:52:30;99846.83;;;4.28;100.00
49709;BME280;35601;55.902;13.606;2023-03-22T01:54:56;99847.03;;;4.37;100.00
49709;BME280;35601;55.902;13.606;2023-03-22T01:57:22;99843.39;;;4.38;100.00
49709;BME280;35601;55.902;13.606;2023-03-22T01:59:48;99840.08;;;4.18;100.00
49709;BME280;35601;55.902;13.606;2023-03-22T02:02:13;99843.85;;;4.07;100.00
49709;BME280;35601;55.902;13.606;2023-03-22T02:04:37;99840.73;;;4.36;100.00
49709;BME280;35601;55.902;13.606;2023-03-22T02:07:05;99838.96;;;3.92;100.00
49709;BME280;35601;55.902;13.606;2023-03-22T02:09:28;99835.37;;;3.83;100.00
49709;BME280;35601;55.902;13.606;2023-03-22T02:12:01;99831.61;;;4.07;100.00
49709;BME280;35601;55.902;13.606;2023-03-22T02:14:28;99829.94;;;3.42;100.00
49709;BME280;35601;55.902;13.606;2023-03-22T02:17:00;99827.40;;;3.78;100.00
49709;BME280;35601;55.902;13.606;2023-03-22T02:19:27;99823.66;;;3.67;100.00
49709;BME280;35601;55.902;13.606;2023-03-22T02:21:50;99818.25;;;4.00;100.00
49709;BME280;35601;55.902;13.606;2023-03-22T02:28:56;99806.35;;;3.76;100.00
49709;BME280;35601;55.902;13.606;2023-03-22T02:36:17;99798.64;;;3.38;100.00
49709;BME280;35601;55.902;13.606;2023-03-22T02:38:50;99798.03;;;3.77;100.00
49709;BME280;35601;55.902;13.606;2023-03-22T02:41:07;99791.52;;;3.37;100.00
49709;BME280;35601;55.902;13.606;2023-03-22T02:43:30;99791.12;;;3.50;100.00
49709;BME280;35601;55.902;13.606;2023-03-22T02:45:54;99791.91;;;3.63;100.00
49709;BME280;35601;55.902;13.606;2023-03-22T02:48:16;99790.86;;;3.94;100.00
49709;BME280;35601;55.902;13.606;2023-03-22T02:50:44;99793.85;;;4.07;100.00
49709;BME280;35601;55.902;13.606;2023-03-22T02:53:12;99789.97;;;3.77;100.00
49709;BME280;35601;55.902;13.606;2023-03-22T02:55:36;99790.61;;;3.64;100.00
49709;BME280;35601;55.902;13.606;2023-03-22T02:58:02;99789.43;;;3.71;100.00
49709;BME280;35601;55.902;13.606;2023-03-22T03:00:23;99784.49;;;4.00;100.00
49709;BME280;35601;55.902;13.606;2023-03-22T03:02:50;99783.67;;;3.70;100.00
49709;BME280;35601;55.902;13.606;2023-03-22T03:05:14;99782.10;;;3.60;100.00
49709;BME280;35601;55.902;13.606;2023-03-22T03:07:41;99781.99;;;3.45;100.00
49709;BME280;35601;55.902;13.606;2023-03-22T03:10:06;99777.01;;;3.55;100.00
49709;BME280;35601;55.902;13.606;2023-03-22T03:12:30;99776.19;;;3.85;100.00
49709;BME280;35601;55.902;13.606;2023-03-22T03:14:56;99776.24;;;3.74;100.00
49709;BME280;35601;55.902;13.606;2023-03-22T03:17:32;99780.93;;;3.53;100.00
49709;BME280;35601;55.902;13.606;2023-03-22T03:19:56;99783.84;;;3.88;100.00
49709;BME280;35601;55.902;13.606;2023-03-22T03:22:27;99784.59;;;3.80;100.00
49709;BME280;35601;55.902;13.606;2023-03-22T03:24:40;99781.03;;;3.65;100.00
49709;BME280;35601;55.902;13.606;2023-03-22T03:27:06;99781.02;;;3.72;100.00
49709;BME280;35601;55.902;13.606;2023-03-22T03:29:34;99780.31;;;3.60;100.00
49709;BME280;35601;55.902;13.606;2023-03-22T03:32:00;99784.83;;;3.41;100.00
49709;BME280;35601;55.902;13.606;2023-03-22T03:34:21;99788.10;;;3.54;100.00
49709;BME280;35601;55.902;13.606;2023-03-22T03:36:49;99786.24;;;3.43;100.00
49709;BME280;35601;55.902;13.606;2023-03-22T03:39:12;99782.23;;;3.82;100.00
49709;BME280;35601;55.902;13.606;2023-03-22T03:41:35;99776.97;;;3.66;100.00
49709;BME280;35601;55.902;13.606;2023-03-22T03:44:01;99775.44;;;3.64;100.00
49709;BME280;35601;55.902;13.606;2023-03-22T03:46:26;99774.32;;;3.67;100.00
49709;BME280;35601;55.902;13.606;2023-03-22T03:48:51;99775.85;;;3.72;100.00
49709;BME280;35601;55.902;13.606;2023-03-22T03:51:17;99771.36;;;3.66;100.00
49709;BME280;35601;55.902;13.606;2023-03-22T03:53:42;99773.05;;;3.66;100.00
49709;BME280;35601;55.902;13.606;2023-03-22T03:56:09;99777.94;;;3.52;100.00
49709;BME280;35601;55.902;13.606;2023-03-22T03:58:33;99778.39;;;3.47;100.00
49709;BME280;35601;55.902;13.606;2023-03-22T04:00:59;99773.14;;;3.74;100.00
49709;BME280;35601;55.902;13.606;2023-03-22T04:03:24;99774.57;;;3.78;100.00
49709;BME280;35601;55.902;13.606;2023-03-22T04:05:49;99775.78;;;3.69;100.00
49709;BME280;35601;55.902;13.606;2023-03-22T04:08:14;99768.84;;;3.56;100.00
49709;BME280;35601;55.902;13.606;2023-03-22T04:10:39;99773.49;;;3.61;100.00
49709;BME280;35601;55.902;13.606;2023-03-22T04:13:04;99772.12;;;3.75;100.00
49709;BME280;35601;55.902;13.606;2023-03-22T04:15:30;99768.11;;;3.56;100.00
49709;BME280;35601;55.902;13.606;2023-03-22T04:17:55;99762.40;;;3.05;100.00
49709;BME280;35601;55.902;13.606;2023-03-22T04:20:21;99761.01;;;3.26;100.00
49709;BME280;35601;55.902;13.606;2023-03-22T04:22:46;99756.62;;;3.27;100.00
49709;BME280;35601;55.902;13.606;2023-03-22T04:25:13;99749.55;;;3.51;100.00
49709;BME280;35601;55.902;13.606;2023-03-22T04:27:37;99738.75;;;3.60;100.00
49709;BME280;35601;55.902;13.606;2023-03-22T04:30:02;99749.00;;;3.50;100.00
49709;BME280;35601;55.902;13.606;2023-03-22T04:32:27;99736.17;;;3.87;100.00
49709;BME280;35601;55.902;13.606;2023-03-22T04:34:52;99708.79;;;3.76;100.00
49709;BME280;35601;55.902;13.606;2023-03-22T04:37:19;99721.01;;;4.14;100.00
49709;BME280;35601;55.902;13.606;2023-03-22T04:39:44;99723.36;;;4.13;100.00
49709;BME280;35601;55.902;13.606;2023-03-22T04:42:10;99722.19;;;3.75;100.00
49709;BME280;35601;55.902;13.606;2023-03-22T04:44:35;99722.53;;;3.67;100.00
49709;BME280;35601;55.902;13.606;2023-03-22T04:47:00;99727.39;;;3.39;100.00
49709;BME280;35601;55.902;13.606;2023-03-22T04:49:25;99730.66;;;3.56;100.00
49709;BME280;35601;55.902;13.606;2023-03-22T04:51:50;99729.66;;;3.75;100.00
49709;BME280;35601;55.902;13.606;2023-03-22T04:54:15;99729.03;;;3.80;100.00
49709;BME280;35601;55.902;13.606;2023-03-22T04:56:41;99727.47;;;3.48;100.00
49709;BME280;35601;55.902;13.606;2023-03-22T04:59:06;99726.75;;;3.56;100.00
49709;BME280;35601;55.902;13.606;2023-03-22T05:01:31;99722.54;;;3.59;100.00
49709;BME280;35601;55.902;13.606;2023-03-22T05:03:57;99716.90;;;3.47;100.00
49709;BME280;35601;55.902;13.606;2023-03-22T05:06:23;99713.35;;;3.52;100.00
49709;BME280;35601;55.902;13.606;2023-03-22T05:08:48;99708.35;;;3.59;100.00
49709;BME280;35601;55.902;13.606;2023-03-22T05:11:15;99701.21;;;3.37;100.00
49709;BME280;35601;55.902;13.606;2023-03-22T05:13:39;99700.14;;;3.61;100.00
49709;BME280;35601;55.902;13.606;2023-03-22T05:16:05;99698.61;;;3.72;100.00
49709;BME280;35601;55.902;13.606;2023-03-22T05:18:30;99694.95;;;3.03;100.00
49709;BME280;35601;55.902;13.606;2023-03-22T05:20:55;99694.09;;;3.72;100.00
49709;BME280;35601;55.902;13.606;2023-03-22T05:23:21;99689.34;;;3.37;100.00
49709;BME280;35601;55.902;13.606;2023-03-22T05:25:48;99687.87;;;3.62;100.00
49709;BME280;35601;55.902;13.606;2023-03-22T05:28:12;99687.46;;;3.79;100.00
49709;BME280;35601;55.902;13.606;2023-03-22T05:30:37;99692.26;;;3.82;100.00
49709;BME280;35601;55.902;13.606;2023-03-22T05:33:03;99691.80;;;3.76;100.00
49709;BME280;35601;55.902;13.606;2023-03-22T05:35:29;99692.05;;;3.63;100.00
49709;BME280;35601;55.902;13.606;2023-03-22T05:37:55;99695.31;;;3.78;100.00
49709;BME280;35601;55.902;13.606;2023-03-22T05:40:19;99693.61;;;3.47;100.00
49709;BME280;35601;55.902;13.606;2023-03-22T05:42:46;99693.82;;;3.47;100.00
49709;BME280;35601;55.902;13.606;2023-03-22T05:45:11;99697.53;;;3.58;100.00
49709;BME280;35601;55.902;13.606;2023-03-22T05:47:36;99696.95;;;3.49;100.00
49709;BME280;35601;55.902;13.606;2023-03-22T05:50:01;99693.02;;;3.66;100.00
49709;BME280;35601;55.902;13.606;2023-03-22T05:52:26;99690.73;;;3.67;100.00
49709;BME280;35601;55.902;13.606;2023-03-22T05:54:52;99694.94;;;3.61;100.00
49709;BME280;35601;55.902;13.606;2023-03-22T05:57:18;99691.79;;;3.54;100.00
49709;BME280;35601;55.902;13.606;2023-03-22T05:59:43;99686.17;;;3.71;100.00
49709;BME280;35601;55.902;13.606;2023-03-22T06:02:09;99689.45;;;3.58;100.00
49709;BME280;35601;55.902;13.606;2023-03-22T06:04:34;99683.07;;;3.89;100.00
49709;BME280;35601;55.902;13.606;2023-03-22T06:07:00;99682.06;;;3.85;100.00
49709;BME280;35601;55.902;13.606;2023-03-22T06:09:25;99684.05;;;3.96;100.00
49709;BME280;35601;55.902;13.606;2023-03-22T06:11:50;99683.73;;;3.83;100.00
49709;BME280;35601;55.902;13.606;2023-03-22T06:14:15;99684.53;;;3.53;100.00
49709;BME280;35601;55.902;13.606;2023-03-22T06:16:41;99692.39;;;3.41;100.00
49709;BME280;35601;55.902;13.606;2023-03-22T06:19:07;99695.08;;;3.78;100.00
49709;BME280;35601;55.902;13.606;2023-03-22T06:21:33;99697.88;;;3.79;100.00
49709;BME280;35601;55.902;13.606;2023-03-22T06:23:57;99694.68;;;3.69;100.00
49709;BME280;35601;55.902;13.606;2023-03-22T06:26:22;99692.08;;;3.75;100.00
49709;BME280;35601;55.902;13.606;2023-03-22T06:28:48;99690.78;;;3.99;100.00
49709;BME280;35601;55.902;13.606;2023-03-22T06:31:14;99689.98;;;4.14;100.00
49709;BME280;35601;55.902;13.606;2023-03-22T06:33:38;99693.13;;;4.18;100.00
49709;BME280;35601;55.902;13.606;2023-03-22T06:36:05;99684.97;;;3.85;100.00
49709;BME280;35601;55.902;13.606;2023-03-22T06:38:29;99682.27;;;3.85;100.00
49709;BME280;35601;55.902;13.606;2023-03-22T06:40:55;99680.75;;;3.78;100.00
49709;BME280;35601;55.902;13.606;2023-03-22T06:43:20;99682.07;;;3.95;100.00
49709;BME280;35601;55.902;13.606;2023-03-22T06:45:49;99679.50;;;3.54;100.00
49709;BME280;35601;55.902;13.606;2023-03-22T06:48:13;99678.90;;;3.51;100.00
49709;BME280;35601;55.902;13.606;2023-03-22T06:50:37;99677.14;;;3.99;100.00
49709;BME280;35601;55.902;13.606;2023-03-22T06:53:03;99679.34;;;4.12;100.00
49709;BME280;35601;55.902;13.606;2023-03-22T06:55:28;99671.70;;;3.94;100.00
49709;BME280;35601;55.902;13.606;2023-03-22T06:57:54;99670.75;;;4.26;100.00
49709;BME280;35601;55.902;13.606;2023-03-22T07:00:20;99667.67;;;3.86;100.00
49709;BME280;35601;55.902;13.606;2023-03-22T07:02:45;99664.18;;;4.19;100.00
49709;BME280;35601;55.902;13.606;2023-03-22T07:05:11;99662.99;;;3.91;100.00
49709;BME280;35601;55.902;13.606;2023-03-22T07:07:37;99660.00;;;3.89;100.00
49709;BME280;35601;55.902;13.606;2023-03-22T07:10:02;99665.89;;;4.11;100.00
49709;BME280;35601;55.902;13.606;2023-03-22T07:12:27;99665.94;;;4.23;100.00
49709;BME280;35601;55.902;13.606;2023-03-22T07:14:52;99661.60;;;4.12;100.00
49709;BME280;35601;55.902;13.606;2023-03-22T07:17:17;99657.59;;;4.17;100.00
49709;BME280;35601;55.902;13.606;2023-03-22T07:19:43;99662.00;;;4.03;100.00
49709;BME280;35601;55.902;13.606;2023-03-22T07:22:09;99663.62;;;4.38;100.00
49709;BME280;35601;55.902;13.606;2023-03-22T07:24:35;99661.94;;;3.89;100.00
49709;BME280;35601;55.902;13.606;2023-03-22T07:27:00;99662.82;;;4.17;100.00
49709;BME280;35601;55.902;13.606;2023-03-22T07:29:25;99654.40;;;4.35;100.00
49709;BME280;35601;55.902;13.606;2023-03-22T07:31:51;99654.04;;;4.34;100.00
49709;BME280;35601;55.902;13.606;2023-03-22T07:34:17;99649.64;;;4.23;100.00
49709;BME280;35601;55.902;13.606;2023-03-22T07:36:41;99651.97;;;4.52;100.00
49709;BME280;35601;55.902;13.606;2023-03-22T07:39:07;99661.77;;;4.46;100.00
49709;BME280;35601;55.902;13.606;2023-03-22T07:41:32;99660.96;;;4.39;100.00
49709;BME280;35601;55.902;13.606;2023-03-22T07:43:58;99659.01;;;4.51;100.00
49709;BME280;35601;55.902;13.606;2023-03-22T07:46:23;99655.95;;;4.69;100.00
49709;BME280;35601;55.902;13.606;2023-03-22T07:48:49;99657.50;;;4.51;100.00
49709;BME280;35601;55.902;13.606;2023-03-22T07:51:14;99657.27;;;4.80;100.00
49709;BME280;35601;55.902;13.606;2023-03-22T07:53:39;99652.51;;;4.56;100.00
49709;BME280;35601;55.902;13.606;2023-03-22T07:56:06;99650.93;;;4.45;100.00
49709;BME280;35601;55.902;13.606;2023-03-22T07:58:30;99654.14;;;4.68;100.00
49709;BME280;35601;55.902;13.606;2023-03-22T08:00:55;99647.78;;;4.58;100.00
49709;BME280;35601;55.902;13.606;2023-03-22T08:03:20;99642.12;;;4.69;100.00
49709;BME280;35601;55.902;13.606;2023-03-22T08:05:46;99635.83;;;4.75;100.00
49709;BME280;35601;55.902;13.606;2023-03-22T08:08:11;99630.21;;;4.51;100.00
49709;BME280;35601;55.902;13.606;2023-03-22T08:10:36;99621.07;;;4.51;100.00
49709;BME280;35601;55.902;13.606;2023-03-22T08:13:03;99619.39;;;4.65;100.00
49709;BME280;35601;55.902;13.606;2023-03-22T08:15:28;99624.28;;;5.00;100.00
49709;BME280;35601;55.902;13.606;2023-03-22T08:17:56;99629.20;;;4.89;100.00
49709;BME280;35601;55.902;13.606;2023-03-22T08:20:20;99630.72;;;4.75;100.00
49709;BME280;35601;55.902;13.606;2023-03-22T08:22:45;99625.00;;;4.53;100.00
49709;BME280;35601;55.902;13.606;2023-03-22T08:25:10;99624.40;;;4.62;100.00
49709;BME280;35601;55.902;13.606;2023-03-22T08:27:34;99625.35;;;4.77;100.00
49709;BME280;35601;55.902;13.606;2023-03-22T08:30:02;99623.63;;;4.97;100.00
49709;BME280;35601;55.902;13.606;2023-03-22T08:32:26;99629.08;;;4.83;99.15
49709;BME280;35601;55.902;13.606;2023-03-22T08:34:51;99616.23;;;4.70;98.15
49709;BME280;35601;55.902;13.606;2023-03-22T08:37:21;99618.08;;;4.97;98.97
49709;BME280;35601;55.902;13.606;2023-03-22T08:39:43;99615.21;;;4.99;99.28
49709;BME280;35601;55.902;13.606;2023-03-22T08:42:08;99620.02;;;4.62;99.89
49709;BME280;35601;55.902;13.606;2023-03-22T08:44:33;99622.29;;;4.68;99.87
49709;BME280;35601;55.902;13.606;2023-03-22T08:46:58;99621.12;;;5.01;99.67
49709;BME280;35601;55.902;13.606;2023-03-22T08:49:25;99617.19;;;5.13;99.00
49709;BME280;35601;55.902;13.606;2023-03-22T08:51:50;99610.03;;;5.21;99.02
49709;BME280;35601;55.902;13.606;2023-03-22T08:54:15;99610.61;;;5.17;99.82
49709;BME280;35601;55.902;13.606;2023-03-22T08:56:40;99613.83;;;4.92;99.77
49709;BME280;35601;55.902;13.606;2023-03-22T08:59:07;99611.63;;;5.22;100.00
49709;BME280;35601;55.902;13.606;2023-03-22T09:01:33;99613.13;;;5.12;100.00
49709;BME280;35601;55.902;13.606;2023-03-22T09:03:57;99602.11;;;5.33;99.43
49709;BME280;35601;55.902;13.606;2023-03-22T09:06:22;99600.23;;;5.65;98.44
49709;BME280;35601;55.902;13.606;2023-03-22T09:08:48;99600.49;;;5.32;98.47
49709;BME280;35601;55.902;13.606;2023-03-22T09:11:13;99597.44;;;5.85;98.66
49709;BME280;35601;55.902;13.606;2023-03-22T09:13:38;99600.67;;;5.38;99.69
49709;BME280;35601;55.902;13.606;2023-03-22T09:16:06;99602.96;;;5.64;98.35
49709;BME280;35601;55.902;13.606;2023-03-22T09:18:29;99597.43;;;5.57;96.99
49709;BME280;35601;55.902;13.606;2023-03-22T09:20:55;99595.03;;;5.83;96.03
49709;BME280;35601;55.902;13.606;2023-03-22T09:23:22;99596.94;;;5.93;95.68
49709;BME280;35601;55.902;13.606;2023-03-22T09:25:46;99601.81;;;5.63;95.78
49709;BME280;35601;55.902;13.606;2023-03-22T09:28:13;99596.97;;;5.63;96.48
49709;BME280;35601;55.902;13.606;2023-03-22T09:30:37;99598.70;;;5.90;96.20
49709;BME280;35601;55.902;13.606;2023-03-22T09:33:03;99598.27;;;5.74;96.90
49709;BME280;35601;55.902;13.606;2023-03-22T09:35:28;99594.01;;;5.59;96.54
49709;BME280;35601;55.902;13.606;2023-03-22T09:37:53;99594.21;;;5.45;96.93
49709;BME280;35601;55.902;13.606;2023-03-22T09:40:19;99594.77;;;5.28;96.78
49709;BME280;35601;55.902;13.606;2023-03-22T09:42:45;99592.11;;;5.40;97.00
49709;BME280;35601;55.902;13.606;2023-03-22T09:45:14;99588.08;;;5.27;97.23
49709;BME280;35601;55.902;13.606;2023-03-22T09:47:38;99588.44;;;5.30;97.42
49709;BME280;35601;55.902;13.606;2023-03-22T09:50:10;99586.03;;;5.35;96.91
49709;BME280;35601;55.902;13.606;2023-03-22T09:52:27;99585.82;;;5.22;97.89
49709;BME280;35601;55.902;13.606;2023-03-22T09:54:53;99589.09;;;5.30;98.55
49709;BME280;35601;55.902;13.606;2023-03-22T09:57:23;99584.95;;;5.14;98.61
49709;BME280;35601;55.902;13.606;2023-03-22T09:59:49;99584.08;;;5.59;97.42
49709;BME280;35601;55.902;13.606;2023-03-22T10:04:43;99582.13;;;5.54;96.32
49709;BME280;35601;55.902;13.606;2023-03-22T10:07:04;99580.76;;;5.69;95.71
49709;BME280;35601;55.902;13.606;2023-03-22T10:09:29;99580.13;;;5.80;95.00
49709;BME280;35601;55.902;13.606;2023-03-22T10:11:55;99578.48;;;5.99;95.67
49709;BME280;35601;55.902;13.606;2023-03-22T10:14:23;99575.80;;;5.90;94.78
49709;BME280;35601;55.902;13.606;2023-03-22T10:16:41;99571.51;;;5.63;95.87
49709;BME280;35601;55.902;13.606;2023-03-22T10:19:12;99570.66;;;5.84;95.29
49709;BME280;35601;55.902;13.606;2023-03-22T10:21:31;99569.69;;;5.38;95.14
49709;BME280;35601;55.902;13.606;2023-03-22T10:23:59;99568.13;;;5.84;95.72
49709;BME280;35601;55.902;13.606;2023-03-22T10:26:27;99561.39;;;5.81;96.54
49709;BME280;35601;55.902;13.606;2023-03-22T10:28:51;99551.51;;;5.84;97.09
49709;BME280;35601;55.902;13.606;2023-03-22T10:31:15;99559.46;;;5.62;99.19
49709;BME280;35601;55.902;13.606;2023-03-22T10:33:40;99561.48;;;5.39;100.00
49709;BME280;35601;55.902;13.606;2023-03-22T10:36:07;99560.76;;;5.66;100.00
49709;BME280;35601;55.902;13.606;2023-03-22T10:38:30;99560.43;;;5.94;100.00
49709;BME280;35601;55.902;13.606;2023-03-22T10:40:57;99561.95;;;5.68;100.00
49709;BME280;35601;55.902;13.606;2023-03-22T10:43:22;99562.26;;;5.68;99.41
49709;BME280;35601;55.902;13.606;2023-03-22T10:45:46;99555.46;;;6.04;99.30
49709;BME280;35601;55.902;13.606;2023-03-22T10:48:15;99556.28;;;6.15;98.29
49709;BME280;35601;55.902;13.606;2023-03-22T10:50:38;99552.89;;;5.95;99.55
49709;BME280;35601;55.902;13.606;2023-03-22T10:53:06;99553.07;;;5.90;99.22
49709;BME280;35601;55.902;13.606;2023-03-22T10:55:27;99556.90;;;6.00;98.42
49709;BME280;35601;55.902;13.606;2023-03-22T10:58:09;99550.87;;;5.98;96.87
49709;BME280;35601;55.902;13.606;2023-03-22T11:00:19;99548.16;;;5.98;96.32
49709;BME280;35601;55.902;13.606;2023-03-22T11:02:51;99548.46;;;6.35;95.87
49709;BME280;35601;55.902;13.606;2023-03-22T11:05:18;99543.42;;;6.04;96.27
49709;BME280;35601;55.902;13.606;2023-03-22T11:07:36;99540.43;;;6.12;96.12
49709;BME280;35601;55.902;13.606;2023-03-22T11:12:24;99541.53;;;6.34;95.82
49709;BME280;35601;55.902;13.606;2023-03-22T11:14:49;99541.17;;;5.91;96.91
49709;BME280;35601;55.902;13.606;2023-03-22T11:17:18;99547.72;;;5.96;98.34
49709;BME280;35601;55.902;13.606;2023-03-22T11:19:48;99541.33;;;5.78;99.58
49709;BME280;35601;55.902;13.606;2023-03-22T11:22:23;99537.94;;;5.50;99.14
49709;BME280;35601;55.902;13.606;2023-03-22T11:24:32;99544.89;;;5.71;100.00
49709;BME280;35601;55.902;13.606;2023-03-22T11:27:03;99533.98;;;5.50;98.52
49709;BME280;35601;55.902;13.606;2023-03-22T11:29:21;99532.73;;;5.92;98.82
49709;BME280;35601;55.902;13.606;2023-03-22T11:31:54;99529.35;;;5.91;99.42
49709;BME280;35601;55.902;13.606;2023-03-22T11:34:17;99521.52;;;5.88;99.65
49709;BME280;35601;55.902;13.606;2023-03-22T11:36:42;99529.58;;;5.55;100.00
49709;BME280;35601;55.902;13.606;2023-03-22T11:39:06;99538.27;;;5.91;98.76
49709;BME280;35601;55.902;13.606;2023-03-22T11:41:28;99546.36;;;5.63;100.00
49709;BME280;35601;55.902;13.606;2023-03-22T11:43:54;99544.14;;;5.36;100.00
49709;BME280;35601;55.902;13.606;2023-03-22T11:46:18;99538.62;;;5.38;100.00
49709;BME280;35601;55.902;13.606;2023-03-22T11:48:45;99533.55;;;5.44;100.00
49709;BME280;35601;55.902;13.606;2023-03-22T11:51:11;99523.27;;;5.30;100.00
49709;BME280;35601;55.902;13.606;2023-03-22T11:53:37;99515.57;;;5.36;100.00
49709;BME280;35601;55.902;13.606;2023-03-22T11:56:02;99519.43;;;5.12;100.00
49709;BME280;35601;55.902;13.606;2023-03-22T11:58:28;99516.78;;;5.11;100.00
49709;BME280;35601;55.902;13.606;2023-03-22T12:00:52;99511.88;;;5.23;100.00
49709;BME280;35601;55.902;13.606;2023-03-22T12:03:20;99502.09;;;5.71;99.98
49709;BME280;35601;55.902;13.606;2023-03-22T12:05:43;99502.64;;;5.41;100.00
49709;BME280;35601;55.902;13.606;2023-03-22T12:08:12;99498.76;;;5.32;100.00
49709;BME280;35601;55.902;13.606;2023-03-22T12:10:37;99497.56;;;5.18;100.00
49709;BME280;35601;55.902;13.606;2023-03-22T12:13:00;99490.51;;;5.25;100.00
49709;BME280;35601;55.902;13.606;2023-03-22T12:15:25;99495.54;;;5.10;100.00
49709;BME280;35601;55.902;13.606;2023-03-22T12:17:52;99489.00;;;5.02;100.00
49709;BME280;35601;55.902;13.606;2023-03-22T12:20:19;99483.87;;;5.07;100.00
49709;BME280;35601;55.902;13.606;2023-03-22T12:22:41;99472.93;;;4.78;100.00
49709;BME280;35601;55.902;13.606;2023-03-22T12:25:10;99475.47;;;4.99;100.00
49709;BME280;35601;55.902;13.606;2023-03-22T12:27:33;99468.92;;;4.87;100.00
49709;BME280;35601;55.902;13.606;2023-03-22T12:29:58;99469.93;;;4.92;100.00
49709;BME280;35601;55.902;13.606;2023-03-22T12:32:25;99468.61;;;4.91;100.00
49709;BME280;35601;55.902;13.606;2023-03-22T12:34:48;99469.28;;;5.21;100.00
49709;BME280;35601;55.902;13.606;2023-03-22T12:37:16;99475.49;;;5.36;100.00
49709;BME280;35601;55.902;13.606;2023-03-22T12:39:39;99487.50;;;5.80;100.00
49709;BME280;35601;55.902;13.606;2023-03-22T12:42:09;99476.56;;;5.47;100.00
49709;BME280;35601;55.902;13.606;2023-03-22T12:44:33;99471.08;;;5.52;100.00
49709;BME280;35601;55.902;13.606;2023-03-22T12:46:56;99475.58;;;5.41;100.00
49709;BME280;35601;55.902;13.606;2023-03-22T12:49:25;99493.34;;;5.46;100.00
49709;BME280;35601;55.902;13.606;2023-03-22T12:51:46;99481.54;;;5.44;100.00
49709;BME280;35601;55.902;13.606;2023-03-22T12:54:12;99482.47;;;4.94;100.00
49709;BME280;35601;55.902;13.606;2023-03-22T12:56:40;99478.06;;;4.74;100.00
49709;BME280;35601;55.902;13.606;2023-03-22T12:59:03;99475.99;;;4.72;100.00